Latest Weather Observations for Falls Creek

IDV60801

Issued at 7:03 pm EST Wednesday 29 June 2022 (issued every 10 minutes, with the page automatically refreshed every 10 minutes)

About weather observations | Map of weather stations | Latest weather observations for VIC | Other Formats
Station Details ID: 083084 Name: FALLS CREEK Lat: -36.87 Lon: 147.28 Height: 1765.0 m
Data from the previous 72 hours. | See also: Recent months at Falls Creek
Date/Time
EST
Temp
°C
App
Temp
°C
Dew
Point
°C
Rel
Hum
%
Delta-T
°C
Wind Press
QNH
hPa
Press
MSL
hPa
Rain since
9am
mm
Dir  Spd
km/h
Gust
km/h
Spd
kts
Gust
kts
29/07:00pm -1.8 -7.7 -2.1 98 0.0 NNW 19 33 10 18 1020.5 1022.1 0.0
29/06:30pm -1.8 -8.2 -1.9 99 -0.1 NW 22 30 12 16 1020.2 1021.9 0.0
29/06:00pm -1.8 -7.8 -1.9 99 -0.1 NNW 20 28 11 15 1020.5 1022.1 0.0
29/05:30pm -1.8 -6.9 -1.9 99 -0.1 NNW 15 22 8 12 1020.8 1022.5 0.0
29/05:00pm -1.7 -6.8 -1.8 99 0.0 NNW 15 22 8 12 1020.7 1022.4 0.0
29/04:30pm -1.6 -7.6 -1.7 99 0.0 NNW 20 30 11 16 1020.5 1022.1 0.0
29/04:00pm -1.7 -8.1 -1.8 99 0.0 NNW 22 32 12 17 1020.5 1022.1 0.0
29/03:30pm -1.4 -8.9 -1.5 99 0.0 NW 28 39 15 21 1020.7 1022.4 0.0
29/03:00pm -1.5 -8.6 -1.6 99 0.0 NNW 26 37 14 20 1020.7 1022.4 0.0
29/02:30pm -1.5 -8.7 -1.8 98 0.0 NNW 26 39 14 21 1020.8 1022.5 0.0
29/02:00pm -1.5 -9.1 -2.1 96 0.2 NNW 28 39 15 21 1020.7 1022.4 0.0
29/01:30pm -0.7 -8.7 -2.4 88 0.6 NW 30 37 16 20 1020.9 1022.6 0.0
29/01:00pm -0.8 -8.1 -2.8 86 0.7 NNW 26 39 14 21 1021.5 1023.2 0.0
29/12:30pm -0.4 -7.3 -2.9 83 0.9 NNW 24 33 13 18 1022.0 1023.7 0.0
29/12:00pm 0.3 -6.6 -2.9 79 1.2 NNW 24 32 13 17 1022.7 1024.5 0.0
29/11:30am -0.3 -8.1 -3.5 79 1.2 NNW 28 37 15 20 1023.2 1025.0 0.0
29/11:00am 0.0 -8.2 -4.1 74 1.5 NNW 30 41 16 22 1023.4 1025.2 0.0
29/10:30am -0.1 -8.1 -5.5 67 1.9 NNW 28 37 15 20 1024.0 1025.8 0.0
29/10:00am -0.5 -9.2 -5.3 70 1.7 NNW 32 43 17 23 1024.0 1025.8 0.0
29/09:30am -1.1 -9.9 -6.6 66 1.8 NNW 32 44 17 24 1023.9 1025.7 0.0
29/09:00am -1.4 -10.2 -6.5 68 1.7 NNW 32 44 17 24 1023.9 1025.7 2.2
29/08:30am -1.3 -10.4 -7.2 64 1.9 NNW 33 44 18 24 1023.9 1025.7 2.2
29/08:00am -1.5 -10.6 -7.0 66 1.8 NNW 33 44 18 24 1023.9 1025.7 2.2
29/07:30am -1.5 -10.5 -5.9 72 1.4 NNW 33 46 18 25 1023.9 1025.7 2.2
29/07:00am -0.6 -9.5 -11.9 42 3.3 NNW 30 37 16 20 1023.7 1025.5 2.2
29/06:30am -1.3 -9.5 -7.4 63 2.0 NNW 28 37 15 20 1023.9 1025.7 2.2
29/06:00am -1.1 -9.0 -9.4 53 2.6 NNW 26 33 14 18 1023.9 1025.7 2.2
29/05:30am -1.0 -8.5 -14.8 34 3.7 NNW 22 32 12 17 1024.0 1025.8 2.2
29/05:00am -0.4 -8.5 -19.5 22 4.6 NNW 24 32 13 17 1023.9 1025.7 2.2
29/04:30am 0.3 -8.3 -21.2 18 5.1 NNW 26 35 14 19 1024.0 1025.8 2.2
29/04:00am -0.5 -8.2 -18.5 24 4.5 NNW 22 33 12 18 1024.4 1026.2 2.2
29/03:30am 0.3 -7.6 -24.0 14 5.4 NNW 22 30 12 16 1024.4 1026.2 2.2
29/03:00am 0.6 -7.3 -26.4 11 5.6 NNW 22 32 12 17 1024.9 1026.7 2.2
29/02:30am 0.7 -7.2 -26.3 11 5.7 NNW 22 32 12 17 1025.2 1027.1 2.2
29/02:00am 0.7 -7.6 -23.7 14 5.5 NNW 24 33 13 18 1025.5 1027.3 2.2
29/01:30am 1.1 -6.8 -26.0 11 5.8 NNW 22 30 12 16 1025.8 1027.7 2.2
29/01:00am 2.5 -6.3 -29.8 7 6.5 NNW 26 37 14 20 1025.9 1027.8 2.2
29/12:30am 2.9 -5.2 -19.0 18 5.9 NNW 24 32 13 17 1026.3 1028.2 2.2
29/12:00am 2.3 -5.6 -25.1 11 6.2 NNW 22 28 12 15 1026.7 1028.6 2.2
 
Date/Time
EST
Temp
°C
App
Temp
°C
Dew
Point
°C
Rel
Hum
%
Delta-T
°C
Wind Press
QNH
hPa
Press
MSL
hPa
Rain since
9am
mm
Dir  Spd
km/h
Gust
km/h
Spd
kts
Gust
kts
28/11:30pm 2.2 -5.0 -21.0 16 5.8 NNW 19 24 10 13 1027.0 1028.9 2.2
28/11:00pm 1.9 -4.7 -14.6 28 4.8 NW 17 24 9 13 1027.2 1029.2 2.2
28/10:30pm 2.0 -4.2 -15.0 27 4.9 NW 15 20 8 11 1027.4 1029.3 2.2
28/10:00pm 3.5 -1.5 -4.7 55 3.1 NW 13 20 7 11 1027.4 1029.3 2.2
28/09:30pm 4.2 -0.1 -4.5 53 3.3 NNW 9 15 5 8 1027.6 1029.6 2.2
28/09:00pm 4.4 0.1 -5.1 50 3.5 NW 9 13 5 7 1027.8 1029.8 2.2
28/08:30pm 4.9 0.2 -5.2 48 3.8 NW 11 15 6 8 1028.1 1030.1 2.2
28/08:00pm 5.0 0.2 -5.9 45 4.0 NW 11 15 6 8 1028.1 1030.1 2.2
28/07:30pm 5.9 1.1 -5.7 43 4.4 NW 11 15 6 8 1027.7 1029.7 2.2
28/07:00pm 6.2 1.8 -6.1 41 4.6 NW 9 13 5 7 1027.7 1029.7 2.2
28/06:30pm 5.8 1.8 -5.8 43 4.4 NW 7 9 4 5 1027.6 1029.6 2.2
28/06:00pm 5.5 2.1 -5.2 46 4.0 NW 4 6 2 3 1027.5 1029.4 2.2
28/05:30pm 5.6 1.8 -5.1 46 4.1 NW 6 7 3 4 1027.5 1029.4 2.2
28/05:00pm 5.8 3.2 -4.6 47 4.0 CALM 0 0 0 0 1027.4 1029.3 2.2
28/04:30pm 5.8 2.1 -4.9 46 4.1 NW 6 9 3 5 1027.6 1029.6 2.0
28/04:00pm 5.0 1.5 -3.0 56 3.2 WNW 6 9 3 5 1028.0 1029.9 2.0
28/03:30pm 4.8 1.3 -2.7 58 3.0 WNW 6 9 3 5 1028.0 1029.9 2.0
28/03:00pm 4.3 1.2 -2.8 60 2.8 W 4 7 2 4 1028.2 1030.2 2.0
28/02:30pm 4.6 1.4 -3.2 57 3.1 WNW 4 9 2 5 1028.3 1030.3 2.0
28/02:00pm 4.2 0.0 -4.3 54 3.2 WNW 9 9 5 5 1028.7 1030.7 2.0
28/01:30pm 3.8 0.1 -2.8 62 2.6 WNW 7 9 4 5 1029.0 1031.1 2.0
28/01:00pm 4.7 1.0 -3.3 56 3.1 WNW 7 9 4 5 1029.0 1031.1 2.0
28/12:30pm 5.1 2.1 -1.8 61 2.8 WNW 4 6 2 3 1029.1 1031.2 2.0
28/12:00pm 5.0 2.7 -2.1 60 2.9 CALM 0 4 0 2 1029.5 1031.6 2.0
28/11:30am 4.4 0.5 -5.1 50 3.6 WSW 7 11 4 6 1030.1 1032.2 2.0
28/11:00am 4.2 0.4 -5.3 50 3.5 WSW 6 7 3 4 1030.3 1032.4 2.0
28/10:30am 4.0 0.2 -5.7 49 3.6 SW 6 7 3 4 1030.2 1032.3 2.0
28/10:00am 3.6 -0.4 -7.8 43 4.1 SW 6 9 3 5 1030.3 1032.4 1.6
28/09:30am 3.0 0.1 -8.3 43 4.0 CALM 0 4 0 2 1030.2 1032.3 0.2
28/09:00am 3.7 -0.5 -10.3 35 4.7 S 6 6 3 3 1029.9 1031.9 3.8
28/08:30am 3.7 -0.6 -11.1 33 5.0 SSE 6 7 3 4 1029.5 1031.6 3.8
28/08:00am 2.9 -1.7 -16.2 23 5.4 S 6 9 3 5 1029.5 1031.6 3.8
28/07:30am 2.8 -2.1 -20.5 16 6.0 SSE 7 9 4 5 1029.1 1031.2 3.8
28/07:00am 2.3 -2.6 -28.5 8 6.4 S 6 9 3 5 1029.0 1031.1 3.8
28/06:30am 0.8 -5.3 -22.8 15 5.4 S 13 15 7 8 1028.7 1030.7 3.8
28/06:00am 1.6 -4.6 -23.8 13 5.8 S 13 17 7 9 1028.6 1030.6 3.8
28/05:30am 1.4 -5.0 -19.7 19 5.3 S 15 22 8 12 1028.4 1030.4 3.8
28/05:00am 0.8 -6.3 -17.9 23 4.9 SSE 19 22 10 12 1028.0 1029.9 3.8
28/04:30am 1.9 -5.0 -21.2 16 5.7 S 17 22 9 12 1028.0 1029.9 3.8
28/04:00am 0.8 -5.3 -21.4 17 5.3 SSE 13 17 7 9 1028.0 1029.9 3.8
28/03:30am -0.3 -7.1 -19.4 22 4.7 SSE 17 19 9 10 1028.0 1029.9 3.8
28/03:00am -0.5 -7.8 -17.6 26 4.3 SSE 20 26 11 14 1028.0 1029.9 3.8
28/02:30am -0.9 -8.1 -15.9 31 4.0 SSE 20 26 11 14 1028.1 1030.1 3.8
28/02:00am -1.9 -9.0 -14.0 39 3.2 SSE 20 26 11 14 1028.1 1030.1 3.8
28/01:30am -3.4 -9.9 -13.1 47 2.5 S 17 20 9 11 1028.3 1030.3 3.8
28/01:00am -4.2 -10.7 -12.6 52 2.1 S 17 22 9 12 1028.2 1030.2 3.8
28/12:30am -4.8 -10.7 -9.6 69 1.2 SSE 15 20 8 11 1028.0 1029.9 3.8
28/12:00am -4.7 -12.2 -8.4 75 0.9 SSE 24 33 13 18 1027.6 1029.6 3.8
 
Date/Time
EST
Temp
°C
App
Temp
°C
Dew
Point
°C
Rel
Hum
%
Delta-T
°C
Wind Press
QNH
hPa
Press
MSL
hPa
Rain since
9am
mm
Dir  Spd
km/h
Gust
km/h
Spd
kts
Gust
kts
27/11:30pm -4.8 -12.6 -7.1 84 0.5 SSE 26 33 14 18 1028.0 1029.9 3.8
27/11:00pm -5.3 -12.6 -5.8 96 -0.1 SSE 24 33 13 18 1028.0 1029.9 3.8
27/10:30pm -4.4 -13.3 -4.8 97 -0.1 S 33 41 18 22 1028.0 1029.9 3.8
27/10:00pm -3.9 -13.5 -4.3 97 0.0 S 37 44 20 24 1028.1 1030.1 3.8
27/09:30pm -3.2 -11.7 -3.5 98 0.0 S 32 41 17 22 1028.4 1030.4 3.8
27/09:00pm -3.1 -11.8 -3.4 98 0.0 SSE 33 46 18 25 1028.0 1029.9 3.8
27/08:30pm -3.1 -11.8 -3.4 98 0.0 SSE 33 43 18 23 1028.1 1030.1 3.8
27/08:00pm -3.4 -11.2 -3.7 98 -0.1 SSE 28 37 15 20 1028.0 1029.9 3.8
27/07:30pm -3.7 -11.5 -4.0 98 -0.1 SSE 28 37 15 20 1027.8 1029.8 3.8
27/07:00pm -3.1 -11.2 -3.4 98 0.0 SSE 30 37 16 20 1027.4 1029.3 3.8
27/06:30pm -3.1 -10.5 -3.4 98 0.0 SSE 26 35 14 19 1027.7 1029.7 3.8
27/06:00pm -3.2 -9.4 -3.5 98 0.0 S 20 32 11 17 1027.5 1029.4 3.8
27/05:30pm -3.4 -10.4 -3.9 96 0.0 S 24 32 13 17 1027.4 1029.3 3.8
27/05:00pm -3.3 -9.0 -3.8 96 0.0 S 17 26 9 14 1027.6 1029.6 3.8
27/04:30pm -3.1 -9.3 -3.5 97 0.0 S 20 28 11 15 1027.4 1029.3 3.8
27/04:00pm -2.8 -10.6 -3.5 95 0.1 S 28 37 15 20 1027.0 1028.9 3.8
27/03:30pm -3.0 -10.8 -4.0 93 0.2 S 28 37 15 20 1027.0 1028.9 3.8
27/03:00pm -3.3 -11.5 -4.1 94 0.1 S 30 35 16 19 1026.9 1028.8 3.6
27/02:30pm -3.2 -11.8 -4.0 94 0.1 S 32 43 17 23 1026.9 1028.8 3.6
27/02:00pm -3.1 -10.1 -3.6 96 0.0 S 24 32 13 17 1026.9 1028.8 3.6
27/01:30pm -3.1 -10.5 -3.6 96 0.0 S 26 37 14 20 1026.8 1028.7 3.0
27/01:00pm -3.6 -12.4 -4.1 96 0.0 S 33 48 18 26 1026.4 1028.3 3.0
27/12:30pm -3.8 -12.4 -4.3 96 0.0 S 32 46 17 25 1026.7 1028.6 2.4
27/12:00pm -4.0 -12.2 -4.4 97 0.0 S 30 43 16 23 1026.4 1028.3 0.0
27/11:30am -3.9 -12.7 -4.3 97 0.0 S 33 44 18 24 1026.4 1028.3 0.0
27/11:00am -4.2 -13.0 -4.6 97 0.0 S 33 43 18 23 1026.5 1028.5 0.0
27/10:30am -4.7 -15.7 -5.2 96 0.0 S 44 61 24 33 1025.9 1027.8 0.0
27/10:25am -4.8 -15.6 -5.3 96 0.0 S 43 61 23 33 1025.7 1027.6 0.0
27/10:00am -4.4 -15.3 -4.8 97 -0.1 S 44 59 24 32 1025.6 1027.5 0.0
27/09:38am -4.6 -15.6 -5.0 97 -0.1 S 44 63 24 34 1025.3 1027.2 0.0
27/09:30am -4.8 -16.6 -5.3 96 0.0 S 48 63 26 34 1025.2 1027.1 0.0
27/09:00am -5.1 -15.6 -5.6 96 -0.1 S 41 61 22 33 1025.2 1027.1 2.8
27/08:56am -5.2 -16.1 -5.7 96 -0.1 S 43 61 23 33 1025.0 1026.8 2.8
27/08:30am -4.7 -16.4 -5.1 97 -0.1 S 48 59 26 32 1024.7 1026.6 2.8
27/08:00am -5.3 -17.9 -5.8 96 -0.1 S 52 63 28 34 1024.2 1026.0 2.8
27/07:30am -5.5 -18.5 -6.0 96 -0.1 S 54 65 29 35 1024.9 1026.7 2.8
27/07:00am -5.5 -16.9 -6.0 96 -0.1 S 46 63 25 34 1024.5 1026.3 2.8
27/06:30am -5.8 -16.0 -6.5 95 0.0 S 39 52 21 28 1024.4 1026.2 2.8
27/06:00am -5.6 -16.7 -6.3 95 0.0 S 44 56 24 30 1023.3 1025.1 2.8
27/05:30am -4.5 -14.5 -4.9 97 -0.1 S 39 48 21 26 1023.7 1025.5 2.8
27/05:00am -4.3 -12.6 -4.7 97 -0.1 S 30 39 16 21 1023.2 1025.0 2.8
27/04:30am -4.3 -11.4 -4.7 97 -0.1 SSE 24 33 13 18 1023.6 1025.4 2.8
27/04:00am -4.5 -11.7 -4.9 97 -0.1 SSW 24 33 13 18 1023.3 1025.1 2.8
27/03:30am -3.9 -9.7 -4.2 98 -0.1 S 17 22 9 12 1023.6 1025.4 2.8
27/03:00am -3.8 -10.1 -4.1 98 -0.1 S 20 26 11 14 1023.7 1025.5 2.8
27/02:30am -3.7 -8.7 -4.0 98 -0.1 S 13 20 7 11 1023.7 1025.5 2.8
27/02:00am -3.3 -10.7 -3.6 98 0.0 SSW 26 32 14 17 1023.6 1025.4 2.8
27/01:30am -2.8 -8.8 -2.9 99 -0.1 S 19 24 10 13 1023.3 1025.1 2.8
27/01:00am -2.1 -7.2 -2.2 99 -0.1 SSE 15 20 8 11 1023.4 1025.2 2.8
27/12:30am -1.4 -6.4 -1.5 99 0.0 SSE 15 19 8 10 1023.7 1025.5 2.8
27/12:00am -1.5 -6.6 -1.6 99 0.0 SSE 15 19 8 10 1023.6 1025.4 2.8
 
Date/Time
EST
Temp
°C
App
Temp
°C
Dew
Point
°C
Rel
Hum
%
Delta-T
°C
Wind Press
QNH
hPa
Press
MSL
hPa
Rain since
9am
mm
Dir  Spd
km/h
Gust
km/h
Spd
kts
Gust
kts
26/11:30pm -1.2 -5.8 -1.3 99 0.0 S 13 17 7 9 1023.7 1025.5 2.8
26/11:00pm -1.1 -5.3 -1.2 99 0.0 SSW 11 15 6 8 1023.6 1025.4 2.8
26/10:30pm -1.2 -5.1 -1.3 99 0.0 WSW 9 11 5 6 1023.3 1025.1 2.8
26/10:00pm -1.3 -4.8 -1.4 99 0.0 WNW 7 11 4 6 1023.1 1024.9 2.8
26/09:30pm -1.2 -5.1 -1.3 99 0.0 WNW 9 11 5 6 1023.1 1024.9 2.8
26/09:00pm -1.1 -5.0 -1.2 99 0.0 NW 9 13 5 7 1023.2 1025.0 2.8
26/08:30pm -0.8 -5.0 -0.9 99 0.0 NW 11 17 6 9 1022.8 1024.6 2.8
26/08:00pm -0.7 -5.3 -0.8 99 0.0 NW 13 20 7 11 1022.7 1024.5 2.8
26/07:30pm -0.8 -5.4 -0.9 99 0.0 NW 13 24 7 13 1022.6 1024.4 2.8

Other formats

Comma delimited format used in spreadsheet applications
http://www.bom.gov.au/fwo/IDV60801/IDV60801.94903.axf

JavaScript Object Notation format (JSON) in row-major order
http://www.bom.gov.au/fwo/IDV60801/IDV60801.94903.json

Data quality

Most of these data are generated automatically and are frequently updated. Quality checks on data are not normally performed. It is possible for incorrect values to appear. Refer to information at About Latest Weather Observations and please check the disclaimer before using these data.